Centerview, Missouri
Current Conditions -  °F | °C
As of 10:35 AM on Wednesday 26 Nov 2014 (Local Time) from KRCM Reporting Station
Overcast Overcast  
Wind Chill: 34°   Ceiling: 8000
Heat Index: 41°   Visibility: 10mi
Dew Point: 34°   Wind: 12mph
Humidity: 76%   Direction: 270°W
Pressure: 29.98"   Gusts: 16mph
Location:  38.74°N, 93.85°W
Report Text: KRCM 261635Z AUTO 27010G14KT 10SM SCT035 OVC080 05/01 A2998 RMK AO2
Loading
Personal Weather Stations






























Interactive Weather Map New forecast layout! Learn more

10-Day Weather Forecast

Advertisements
Track Severe Weather on mobile